createdAt,value
2023-05-06T00:00:17.589Z,15.50
2023-05-06T00:02:46.144Z,15.40
2023-05-06T00:05:15.202Z,15.40
2023-05-06T00:07:43.519Z,15.50
2023-05-06T00:10:12.110Z,15.50
2023-05-06T00:12:40.969Z,15.50
2023-05-06T00:15:11.863Z,15.50
2023-05-06T00:17:40.652Z,15.50
2023-05-06T00:20:10.762Z,15.30
2023-05-06T00:22:39.249Z,15.20
2023-05-06T00:25:08.573Z,15.20
2023-05-06T00:27:38.170Z,15.20
2023-05-06T00:30:07.547Z,15.30
2023-05-06T00:32:37.458Z,15.30
2023-05-06T00:35:06.927Z,15.30
2023-05-06T00:37:35.501Z,15.30
2023-05-06T00:40:04.222Z,15.30
2023-05-06T00:42:34.204Z,15.40
2023-05-06T00:45:02.592Z,15.30
2023-05-06T00:47:31.339Z,15.30
2023-05-06T00:50:01.438Z,15.40
2023-05-06T00:52:30.242Z,15.30
2023-05-06T00:54:58.732Z,15.20
2023-05-06T00:57:27.514Z,15.10
2023-05-06T00:59:56.418Z,15.10
2023-05-06T01:02:28.502Z,15.10
2023-05-06T01:05:07.066Z,15.10
2023-05-06T01:07:42.238Z,15.10
2023-05-06T01:10:20.182Z,14.90
2023-05-06T01:12:58.563Z,14.80
2023-05-06T01:15:34.655Z,14.80
2023-05-06T01:18:10.324Z,14.80
2023-05-06T01:20:42.336Z,14.80
2023-05-06T01:23:13.831Z,14.90
2023-05-06T01:25:42.828Z,15.00
2023-05-06T01:28:12.678Z,15.00
2023-05-06T01:30:49.734Z,15.10
2023-05-06T01:33:25.203Z,15.20
2023-05-06T01:36:02.897Z,15.10
2023-05-06T01:38:39.040Z,15.00
2023-05-06T01:41:08.591Z,15.00
2023-05-06T01:43:42.698Z,15.10
2023-05-06T01:46:16.044Z,15.00
2023-05-06T01:48:46.437Z,15.00
2023-05-06T01:51:14.816Z,15.00
2023-05-06T01:53:44.570Z,15.10
2023-05-06T01:56:12.901Z,15.10
2023-05-06T01:58:41.348Z,14.90
2023-05-06T02:01:09.688Z,14.90
2023-05-06T02:03:38.417Z,14.90
2023-05-06T02:06:06.899Z,15.00
2023-05-06T02:08:39.956Z,15.10
2023-05-06T02:11:13.046Z,15.10
2023-05-06T02:13:42.422Z,14.90
2023-05-06T02:16:11.991Z,14.80
2023-05-06T02:18:41.557Z,14.90
2023-05-06T02:21:11.982Z,14.90
2023-05-06T02:23:40.585Z,14.90
2023-05-06T02:26:08.931Z,14.80
2023-05-06T02:28:38.697Z,14.90
2023-05-06T02:31:07.098Z,15.00
2023-05-06T02:33:35.498Z,15.00
2023-05-06T02:36:03.898Z,15.00
2023-05-06T02:38:32.242Z,14.90
2023-05-06T02:41:01.626Z,14.90
2023-05-06T02:43:29.897Z,14.90
2023-05-06T02:45:59.585Z,14.70
2023-05-06T02:48:28.137Z,14.50
2023-05-06T02:50:56.429Z,14.60
2023-05-06T02:53:24.717Z,14.70
2023-05-06T02:55:53.141Z,14.60
2023-05-06T02:58:21.669Z,14.60
2023-05-06T03:00:50.015Z,14.40
2023-05-06T03:03:20.194Z,14.40
2023-05-06T03:05:48.484Z,14.30
2023-05-06T03:08:16.919Z,14.20
2023-05-06T03:10:45.300Z,14.10
2023-05-06T03:13:14.869Z,14.20
2023-05-06T03:15:43.424Z,14.20
2023-05-06T03:18:11.816Z,14.20
2023-05-06T03:20:42.876Z,14.20
2023-05-06T03:23:14.223Z,14.40
2023-05-06T03:25:42.684Z,14.40
2023-05-06T03:28:11.913Z,14.50
2023-05-06T03:30:41.743Z,14.50
2023-05-06T03:33:10.056Z,14.40
2023-05-06T03:35:38.445Z,14.30
2023-05-06T03:38:08.460Z,14.30
2023-05-06T03:40:44.122Z,14.20
2023-05-06T03:43:15.222Z,14.30
2023-05-06T03:45:45.037Z,14.40
2023-05-06T03:48:13.649Z,14.40
2023-05-06T03:50:44.718Z,14.30
2023-05-06T03:53:15.780Z,14.30
2023-05-06T03:55:46.591Z,14.30
2023-05-06T03:58:15.525Z,14.30
2023-05-06T04:00:46.361Z,14.30
2023-05-06T04:03:14.781Z,14.40
2023-05-06T04:05:47.694Z,14.30
2023-05-06T04:08:19.886Z,14.30
2023-05-06T04:10:48.399Z,14.20
2023-05-06T04:13:28.088Z,14.30
2023-05-06T04:15:59.550Z,14.20
2023-05-06T04:18:35.692Z,14.20
2023-05-06T04:21:08.628Z,14.30
2023-05-06T04:23:40.320Z,14.40
2023-05-06T04:26:10.159Z,14.40
2023-05-06T04:28:42.107Z,14.50
2023-05-06T04:31:14.733Z,14.70
2023-05-06T04:33:47.129Z,14.70
2023-05-06T04:36:19.078Z,14.70
2023-05-06T04:39:18.240Z,14.70
2023-05-06T04:41:49.323Z,14.80
2023-05-06T04:44:22.769Z,14.90
2023-05-06T04:46:52.674Z,14.90
2023-05-06T04:49:22.099Z,14.90
2023-05-06T04:51:50.668Z,14.90
2023-05-06T04:54:20.520Z,14.90
2023-05-06T04:56:48.986Z,15.10
2023-05-06T04:59:19.326Z,15.20
2023-05-06T05:01:47.884Z,15.20
2023-05-06T05:04:17.437Z,15.20
2023-05-06T05:06:45.985Z,15.40
2023-05-06T05:09:14.841Z,15.40
2023-05-06T05:11:47.009Z,15.40
2023-05-06T05:14:15.577Z,15.50
2023-05-06T05:16:44.738Z,15.80
2023-05-06T05:19:13.344Z,15.80
2023-05-06T05:21:41.835Z,15.80
2023-05-06T05:24:12.508Z,15.90
2023-05-06T05:26:40.939Z,16.00
2023-05-06T05:29:11.282Z,16.00
2023-05-06T05:31:39.934Z,16.00
2023-05-06T05:34:08.450Z,16.10
2023-05-06T05:36:36.852Z,16.20
2023-05-06T05:39:08.579Z,16.40
2023-05-06T05:41:42.825Z,16.90
2023-05-06T05:44:12.763Z,19.10
2023-05-06T05:46:42.104Z,21.30
2023-05-06T05:49:13.130Z,20.90
2023-05-06T05:51:42.423Z,20.50
2023-05-06T05:54:13.035Z,20.00
2023-05-06T05:56:42.854Z,19.20
2023-05-06T05:59:13.983Z,18.80
2023-05-06T06:01:43.351Z,18.60
2023-05-06T06:04:11.969Z,18.50
2023-05-06T06:06:40.386Z,18.30
2023-05-06T06:09:08.717Z,18.10
2023-05-06T06:11:38.618Z,17.90
2023-05-06T06:14:08.172Z,18.00
2023-05-06T06:16:39.422Z,18.00
2023-05-06T06:19:07.844Z,18.10
2023-05-06T06:21:37.422Z,18.40
2023-05-06T06:24:06.782Z,18.50
2023-05-06T06:26:35.086Z,18.70
2023-05-06T06:29:03.584Z,19.00
2023-05-06T06:31:34.071Z,19.00
2023-05-06T06:34:06.509Z,19.00
2023-05-06T06:36:35.884Z,19.00
2023-05-06T06:39:04.517Z,19.10
2023-05-06T06:41:32.822Z,19.30
2023-05-06T06:44:01.140Z,19.50
2023-05-06T06:46:31.258Z,19.70
2023-05-06T06:48:59.633Z,19.90
2023-05-06T06:51:29.565Z,19.90
2023-05-06T06:53:57.878Z,19.80
2023-05-06T06:56:26.225Z,19.80
2023-05-06T06:58:54.630Z,20.00
2023-05-06T07:01:22.969Z,20.00
2023-05-06T07:03:51.431Z,20.10
2023-05-06T07:06:19.863Z,20.30
2023-05-06T07:08:49.535Z,20.40
2023-05-06T07:11:17.882Z,20.50
2023-05-06T07:13:46.205Z,20.60
2023-05-06T07:16:14.634Z,20.60
2023-05-06T07:18:43.011Z,20.70
2023-05-06T07:21:11.441Z,20.80
2023-05-06T07:23:39.758Z,20.90
2023-05-06T07:26:09.444Z,21.00
2023-05-06T07:28:37.954Z,21.20
2023-05-06T07:31:06.365Z,21.30
2023-05-06T07:33:34.758Z,21.40
2023-05-06T07:36:03.242Z,21.40
2023-05-06T07:38:31.604Z,21.60
2023-05-06T07:41:00.232Z,21.60
2023-05-06T07:43:29.920Z,21.60
2023-05-06T07:46:02.960Z,21.60
2023-05-06T07:48:32.915Z,21.60
2023-05-06T07:51:01.936Z,21.60
2023-05-06T07:53:30.260Z,21.60
2023-05-06T07:56:02.356Z,21.70
2023-05-06T07:58:32.752Z,21.80
2023-05-06T08:01:01.218Z,21.80
2023-05-06T08:03:29.681Z,21.80
2023-05-06T08:05:58.194Z,21.80
2023-05-06T08:08:28.062Z,21.60
2023-05-06T08:10:57.205Z,21.70
2023-05-06T08:13:25.903Z,21.70
2023-05-06T08:15:57.377Z,21.60
2023-05-06T08:18:25.857Z,21.70
2023-05-06T08:20:54.182Z,21.70
2023-05-06T08:23:23.371Z,21.80
2023-05-06T08:25:51.969Z,21.90
2023-05-06T08:28:20.808Z,21.90
2023-05-06T08:30:51.456Z,22.00
2023-05-06T08:33:21.245Z,22.10
2023-05-06T08:35:50.944Z,22.20
2023-05-06T08:38:19.301Z,22.20
2023-05-06T08:40:50.432Z,22.20
2023-05-06T08:43:22.671Z,22.20
2023-05-06T08:45:51.799Z,22.30
2023-05-06T08:48:21.586Z,22.30
2023-05-06T08:50:52.018Z,22.40
2023-05-06T08:53:20.554Z,22.50
2023-05-06T08:55:50.699Z,22.60
2023-05-06T08:58:19.986Z,22.60
2023-05-06T09:00:48.803Z,22.60
2023-05-06T09:03:17.193Z,22.70
2023-05-06T09:05:46.954Z,22.70
2023-05-06T09:08:16.341Z,22.80
2023-05-06T09:10:46.254Z,22.90
2023-05-06T09:13:15.639Z,23.00
2023-05-06T09:15:44.879Z,23.10
2023-05-06T09:18:13.454Z,23.00
2023-05-06T09:20:43.014Z,22.90
2023-05-06T09:23:14.221Z,23.00
2023-05-06T09:25:42.856Z,23.10
2023-05-06T09:28:12.850Z,23.30
2023-05-06T09:30:41.995Z,23.20
2023-05-06T09:33:11.033Z,23.20
2023-05-06T09:35:42.129Z,23.20
2023-05-06T09:38:12.065Z,23.30
2023-05-06T09:40:40.939Z,23.40
2023-05-06T09:43:10.527Z,23.40
2023-05-06T09:45:38.986Z,23.40
2023-05-06T09:48:09.408Z,23.40
2023-05-06T09:50:38.320Z,23.50
2023-05-06T09:53:07.823Z,23.60
2023-05-06T09:55:42.419Z,23.50
2023-05-06T09:58:11.572Z,23.60
2023-05-06T10:00:40.840Z,23.50
2023-05-06T10:03:10.003Z,23.60
2023-05-06T10:05:38.819Z,23.60
2023-05-06T10:08:09.274Z,23.70
2023-05-06T10:10:42.909Z,23.70
2023-05-06T10:13:12.006Z,23.80
2023-05-06T10:15:41.155Z,23.80
2023-05-06T10:18:10.990Z,23.60
2023-05-06T10:20:42.541Z,23.80
2023-05-06T10:23:18.234Z,23.90
2023-05-06T10:25:52.052Z,23.80
2023-05-06T10:28:30.904Z,23.80
2023-05-06T10:31:00.796Z,23.80
2023-05-06T10:33:30.535Z,24.00
2023-05-06T10:36:08.788Z,24.00
2023-05-06T10:38:42.169Z,24.10
2023-05-06T10:41:12.350Z,24.10
2023-05-06T10:43:42.511Z,24.20
2023-05-06T10:46:12.335Z,24.30
2023-05-06T10:49:01.598Z,24.40
2023-05-06T10:51:32.400Z,24.50
2023-05-06T10:54:05.670Z,24.50
2023-05-06T10:56:37.339Z,24.60
2023-05-06T10:59:10.697Z,24.70
2023-05-06T11:01:40.782Z,24.90
2023-05-06T11:04:10.790Z,24.80
2023-05-06T11:06:42.165Z,24.80
2023-05-06T11:09:18.344Z,25.00
2023-05-06T11:12:00.481Z,25.00
2023-05-06T11:14:35.481Z,25.00
2023-05-06T11:17:05.341Z,25.20
2023-05-06T11:19:35.356Z,25.40
2023-05-06T11:22:06.124Z,25.50
2023-05-06T11:24:42.353Z,25.70
2023-05-06T11:27:12.949Z,25.50
2023-05-06T11:29:44.224Z,25.30
2023-05-06T11:32:24.283Z,25.20
2023-05-06T11:34:57.092Z,25.20
2023-05-06T11:37:30.031Z,25.20
2023-05-06T11:39:58.541Z,25.10
2023-05-06T11:42:29.877Z,25.30
2023-05-06T11:45:02.590Z,25.30
2023-05-06T11:47:30.976Z,25.00
2023-05-06T11:50:00.097Z,24.90
2023-05-06T11:52:28.529Z,25.00
2023-05-06T11:54:56.943Z,25.10
2023-05-06T11:57:27.902Z,25.40
2023-05-06T11:59:56.214Z,25.70
2023-05-06T12:02:24.641Z,25.70
2023-05-06T12:04:53.430Z,25.60
2023-05-06T12:07:22.082Z,25.60
2023-05-06T12:09:51.330Z,25.70
2023-05-06T12:12:22.931Z,25.80
2023-05-06T12:14:54.229Z,25.80
2023-05-06T12:17:23.320Z,26.00
2023-05-06T12:19:51.983Z,26.10
2023-05-06T12:22:22.686Z,25.90
2023-05-06T12:24:51.570Z,25.70
2023-05-06T12:27:33.341Z,25.70
2023-05-06T12:30:04.900Z,25.60
2023-05-06T12:32:33.593Z,25.70
2023-05-06T12:35:05.931Z,25.50
2023-05-06T12:37:34.635Z,25.60
2023-05-06T12:40:04.030Z,25.80
2023-05-06T12:42:32.705Z,25.90
2023-05-06T12:45:16.250Z,25.90
2023-05-06T12:47:54.874Z,26.10
2023-05-06T12:50:34.353Z,26.10
2023-05-06T12:53:03.527Z,25.90
2023-05-06T12:55:32.690Z,25.80
2023-05-06T12:58:01.637Z,25.90
2023-05-06T13:00:31.704Z,25.90
2023-05-06T13:03:00.379Z,26.10
2023-05-06T13:05:29.235Z,26.60
2023-05-06T13:07:57.779Z,26.80
2023-05-06T13:10:26.421Z,27.00
2023-05-06T13:12:54.917Z,27.60
2023-05-06T13:15:23.566Z,28.10
2023-05-06T13:17:53.734Z,28.40
2023-05-06T13:20:22.354Z,28.40
2023-05-06T13:22:54.806Z,29.10
2023-05-06T13:25:23.885Z,30.00
2023-05-06T13:27:52.682Z,30.60
2023-05-06T13:30:21.518Z,30.70
2023-05-06T13:32:50.098Z,31.30
2023-05-06T13:35:20.194Z,31.60
2023-05-06T13:37:48.697Z,32.30
2023-05-06T13:40:17.279Z,31.90
2023-05-06T13:42:45.869Z,31.60
2023-05-06T13:45:15.437Z,31.20
2023-05-06T13:47:44.352Z,31.20
2023-05-06T13:50:13.084Z,31.00
2023-05-06T13:52:43.109Z,31.70
2023-05-06T13:55:11.982Z,32.50
2023-05-06T13:57:40.679Z,32.30
2023-05-06T14:00:11.053Z,31.70
2023-05-06T14:02:39.620Z,32.50
2023-05-06T14:05:09.444Z,32.70
2023-05-06T14:07:40.346Z,33.20
2023-05-06T14:10:12.069Z,32.30
2023-05-06T14:12:41.035Z,31.80
2023-05-06T14:15:10.799Z,31.50
2023-05-06T14:17:40.207Z,31.50
2023-05-06T14:20:10.353Z,31.50
2023-05-06T14:22:41.703Z,32.00
2023-05-06T14:25:12.403Z,31.30
2023-05-06T14:27:43.480Z,31.00
2023-05-06T14:30:12.876Z,31.00
2023-05-06T14:32:41.490Z,30.90
2023-05-06T14:35:11.789Z,30.60
2023-05-06T14:37:41.017Z,30.70
2023-05-06T14:40:12.223Z,30.80
2023-05-06T14:42:40.766Z,31.20
2023-05-06T14:45:10.682Z,31.60
2023-05-06T14:47:40.485Z,31.60
2023-05-06T14:50:10.834Z,31.70
2023-05-06T14:52:40.242Z,31.40
2023-05-06T14:55:12.041Z,31.10
2023-05-06T14:57:43.029Z,30.20
2023-05-06T15:00:14.935Z,30.60
2023-05-06T15:02:43.729Z,30.10
2023-05-06T15:05:13.352Z,29.90
2023-05-06T15:07:42.308Z,30.40
2023-05-06T15:10:12.650Z,30.20
2023-05-06T15:12:42.822Z,30.80
2023-05-06T15:15:11.800Z,31.20
2023-05-06T15:17:41.882Z,31.40
2023-05-06T15:20:11.556Z,31.00
2023-05-06T15:22:40.475Z,30.10
2023-05-06T15:25:19.377Z,30.40
2023-05-06T15:27:52.094Z,30.50
2023-05-06T15:30:20.891Z,30.50
2023-05-06T15:32:49.631Z,31.10
2023-05-06T15:35:18.097Z,30.50
2023-05-06T15:37:46.839Z,29.20
2023-05-06T15:40:17.094Z,28.20
2023-05-06T15:42:45.626Z,27.40
2023-05-06T15:45:14.472Z,26.40
2023-05-06T15:47:44.043Z,25.90
2023-05-06T15:50:21.174Z,25.30
2023-05-06T15:53:00.217Z,24.90
2023-05-06T15:55:30.154Z,24.70
2023-05-06T15:58:00.743Z,24.90
2023-05-06T16:00:29.607Z,25.50
2023-05-06T16:02:58.379Z,25.60
2023-05-06T16:05:27.000Z,25.30
2023-05-06T16:07:56.124Z,24.90
2023-05-06T16:10:24.751Z,24.90
2023-05-06T16:12:54.870Z,24.70
2023-05-06T16:15:23.489Z,24.70
2023-05-06T16:17:52.084Z,24.70
2023-05-06T16:20:21.558Z,25.00
2023-05-06T16:22:51.569Z,24.90
2023-05-06T16:25:20.279Z,24.80
2023-05-06T16:27:48.881Z,24.80
2023-05-06T16:30:19.129Z,24.60
2023-05-06T16:32:47.720Z,24.50
2023-05-06T16:35:17.352Z,25.20
2023-05-06T16:37:46.315Z,25.40
2023-05-06T16:40:16.255Z,25.50
2023-05-06T16:42:44.744Z,26.60
2023-05-06T16:45:13.604Z,27.40
2023-05-06T16:47:45.159Z,27.70
2023-05-06T16:50:14.263Z,27.50
2023-05-06T16:52:42.801Z,26.40
2023-05-06T16:55:13.596Z,25.50
2023-05-06T16:57:42.977Z,25.00
2023-05-06T17:00:12.583Z,25.30
2023-05-06T17:02:42.895Z,26.10
2023-05-06T17:05:11.551Z,26.60
2023-05-06T17:07:40.323Z,26.90
2023-05-06T17:10:10.000Z,27.30
2023-05-06T17:12:38.696Z,27.50
2023-05-06T17:15:08.451Z,27.60
2023-05-06T17:17:37.036Z,27.50
2023-05-06T17:20:08.388Z,26.10
2023-05-06T17:22:37.367Z,25.50
2023-05-06T17:25:06.622Z,24.80
2023-05-06T17:27:35.246Z,24.00
2023-05-06T17:30:03.786Z,23.50
2023-05-06T17:32:32.388Z,23.20
2023-05-06T17:35:01.320Z,22.80
2023-05-06T17:37:32.037Z,22.50
2023-05-06T17:40:00.648Z,22.40
2023-05-06T17:42:29.168Z,22.20
2023-05-06T17:44:57.676Z,22.10
2023-05-06T17:47:30.162Z,22.00
2023-05-06T17:49:59.189Z,21.90
2023-05-06T17:52:27.708Z,21.70
2023-05-06T17:55:14.739Z,21.60
2023-05-06T17:57:44.839Z,21.60
2023-05-06T18:00:15.040Z,21.60
2023-05-06T18:02:44.043Z,21.50
2023-05-06T18:05:13.469Z,21.60
2023-05-06T18:07:42.366Z,21.60
2023-05-06T18:10:12.831Z,21.50
2023-05-06T18:12:42.430Z,21.50
2023-05-06T18:15:12.001Z,21.50
2023-05-06T18:17:40.798Z,21.30
2023-05-06T18:20:11.391Z,21.30
2023-05-06T18:22:40.213Z,21.30
2023-05-06T18:25:10.170Z,21.30
2023-05-06T18:27:42.616Z,21.20
2023-05-06T18:30:11.680Z,21.10
2023-05-06T18:32:40.633Z,20.90
2023-05-06T18:35:11.736Z,20.70
2023-05-06T18:37:40.693Z,20.70
2023-05-06T18:40:10.318Z,20.60
2023-05-06T18:42:38.890Z,20.60
2023-05-06T18:45:10.560Z,20.50
2023-05-06T18:47:40.403Z,20.40
2023-05-06T18:50:10.091Z,20.40
2023-05-06T18:52:38.601Z,20.40
2023-05-06T18:55:08.027Z,20.50
2023-05-06T18:57:36.823Z,20.50
2023-05-06T19:00:07.350Z,20.50
2023-05-06T19:02:38.114Z,20.50
2023-05-06T19:05:11.440Z,20.50
2023-05-06T19:07:40.414Z,20.40
2023-05-06T19:10:10.119Z,20.40
2023-05-06T19:12:38.809Z,20.50
2023-05-06T19:15:08.827Z,20.50
2023-05-06T19:17:39.173Z,20.50
2023-05-06T19:20:09.393Z,20.40
2023-05-06T19:22:38.014Z,20.40
2023-05-06T19:25:08.311Z,20.40
2023-05-06T19:27:37.155Z,20.40
2023-05-06T19:30:06.499Z,20.20
2023-05-06T19:32:36.057Z,20.20
2023-05-06T19:35:08.422Z,20.20
2023-05-06T19:37:37.628Z,20.20
2023-05-06T19:40:08.229Z,20.10
2023-05-06T19:42:36.954Z,20.00
2023-05-06T19:45:08.794Z,20.00
2023-05-06T19:47:38.036Z,20.00
2023-05-06T19:50:09.359Z,20.00
2023-05-06T19:52:38.040Z,19.90
2023-05-06T19:55:07.516Z,20.00
2023-05-06T19:57:37.192Z,19.90
2023-05-06T20:00:11.764Z,19.90
2023-05-06T20:02:41.785Z,19.80
2023-05-06T20:05:12.476Z,19.70
2023-05-06T20:07:41.437Z,19.70
2023-05-06T20:10:13.617Z,19.70
2023-05-06T20:12:42.774Z,19.70
2023-05-06T20:15:12.132Z,19.70
2023-05-06T20:17:40.920Z,19.60
2023-05-06T20:20:12.268Z,19.60
2023-05-06T20:22:41.966Z,19.40
2023-05-06T20:25:11.898Z,19.40
2023-05-06T20:27:40.653Z,19.30
2023-05-06T20:30:10.709Z,19.30
2023-05-06T20:32:39.624Z,19.30
2023-05-06T20:35:09.111Z,19.30
2023-05-06T20:37:41.407Z,19.30
2023-05-06T20:40:11.224Z,19.30
2023-05-06T20:42:40.916Z,19.30
2023-05-06T20:45:10.439Z,19.40
2023-05-06T20:47:39.344Z,19.40
2023-05-06T20:50:08.392Z,19.30
2023-05-06T20:52:38.312Z,19.30
2023-05-06T20:55:07.794Z,19.30
2023-05-06T20:57:36.343Z,19.30
2023-05-06T21:00:07.494Z,19.30
2023-05-06T21:02:41.015Z,19.30
2023-05-06T21:05:10.895Z,19.20
2023-05-06T21:07:41.269Z,19.10
2023-05-06T21:10:12.062Z,19.30
2023-05-06T21:12:48.482Z,19.30
2023-05-06T21:15:17.932Z,19.30
2023-05-06T21:17:46.511Z,19.30
2023-05-06T21:20:15.262Z,19.30
2023-05-06T21:22:45.167Z,19.30
2023-05-06T21:25:14.389Z,19.30
2023-05-06T21:27:42.984Z,19.30
2023-05-06T21:30:12.058Z,19.30
2023-05-06T21:32:40.634Z,19.20
2023-05-06T21:35:09.956Z,19.20
2023-05-06T21:37:38.789Z,19.20
2023-05-06T21:40:10.293Z,19.10
2023-05-06T21:42:38.889Z,19.10
2023-05-06T21:45:08.662Z,19.20
2023-05-06T21:47:37.320Z,19.30
2023-05-06T21:50:06.553Z,19.30
2023-05-06T21:52:35.159Z,19.20
2023-05-06T21:55:03.659Z,19.20
2023-05-06T21:57:33.936Z,19.20
2023-05-06T22:00:07.343Z,19.30
2023-05-06T22:02:36.806Z,19.30
2023-05-06T22:05:05.945Z,19.30
2023-05-06T22:07:34.669Z,19.20
2023-05-06T22:10:03.668Z,19.20
2023-05-06T22:12:34.167Z,19.20
2023-05-06T22:15:02.856Z,19.20
2023-05-06T22:17:32.830Z,19.20
2023-05-06T22:20:02.919Z,19.20
2023-05-06T22:22:31.938Z,19.10
2023-05-06T22:25:01.288Z,19.10
2023-05-06T22:27:29.846Z,19.00
2023-05-06T22:29:59.739Z,18.90
2023-05-06T22:32:28.325Z,18.90
2023-05-06T22:34:56.803Z,19.00
2023-05-06T22:37:25.323Z,19.00
2023-05-06T22:39:56.663Z,19.00
2023-05-06T22:42:25.773Z,19.00
2023-05-06T22:44:54.287Z,18.90
2023-05-06T22:54:13.042Z,18.80
2023-05-06T22:56:41.586Z,18.70
2023-05-06T22:59:10.065Z,18.80
2023-05-06T23:01:38.770Z,18.80
2023-05-06T23:04:11.113Z,18.80
2023-05-06T23:06:40.124Z,18.70
2023-05-06T23:09:08.600Z,18.70
2023-05-06T23:11:38.775Z,18.70
2023-05-06T23:14:08.307Z,18.60
2023-05-06T23:16:36.947Z,18.60
2023-05-06T23:19:05.674Z,18.50
2023-05-06T23:21:35.070Z,18.50
2023-05-06T23:24:03.585Z,18.50
2023-05-06T23:26:32.102Z,18.50
2023-05-06T23:29:02.007Z,18.50
2023-05-06T23:31:30.691Z,18.60
2023-05-06T23:33:59.301Z,18.60
2023-05-06T23:36:27.929Z,18.60
2023-05-06T23:38:56.625Z,18.50
2023-05-06T23:41:25.239Z,18.50
2023-05-06T23:43:53.807Z,18.50
2023-05-06T23:46:23.726Z,18.60
2023-05-06T23:48:52.289Z,18.60
2023-05-06T23:51:20.788Z,18.50
2023-05-06T23:53:49.264Z,18.50
2023-05-06T23:56:17.846Z,18.50
2023-05-06T23:58:46.379Z,18.50
